Terminal Aerodrome Forecast
Issued by NWS Twin Cities, MN

Home | Current Version | Previous Version | Graphics & Text | Print | Product List | Glossary On
Versions: 1 2 3 4 5 6 7 8 9 10 11 12 13
545
FTUS43 KMPX 192325
TAFSTC
TAF
KSTC 192325Z 2000/2024 18008KT P6SM FEW200
     FM200100 25006KT P6SM FEW200
     FM200300 31008KT P6SM FEW150
     FM201000 36009KT P6SM BKN150
     FM202000 33007KT P6SM FEW200=

USA.gov is the U.S. government's official web portal to all federal, state and local government web resources and services.